sensor_id;sensor_type;location;lat;lon;timestamp;P1;durP1;ratioP1;P2;durP2;ratioP2
67904;SDS011;54709;43.614;1.576;2024-03-02T00:01:03;7.95;;;3.78;;
67904;SDS011;54709;43.614;1.576;2024-03-02T00:03:28;5.18;;;3.65;;
67904;SDS011;54709;43.614;1.576;2024-03-02T00:05:54;5.78;;;4.20;;
67904;SDS011;54709;43.614;1.576;2024-03-02T00:08:23;10.15;;;5.03;;
67904;SDS011;54709;43.614;1.576;2024-03-02T00:10:50;7.65;;;5.13;;
67904;SDS011;54709;43.614;1.576;2024-03-02T00:13:16;10.35;;;5.53;;
67904;SDS011;54709;43.614;1.576;2024-03-02T00:18:09;9.98;;;6.18;;
67904;SDS011;54709;43.614;1.576;2024-03-02T00:20:36;9.77;;;5.93;;
67904;SDS011;54709;43.614;1.576;2024-03-02T00:25:49;10.73;;;6.45;;
67904;SDS011;54709;43.614;1.576;2024-03-02T00:28:21;12.35;;;6.68;;
67904;SDS011;54709;43.614;1.576;2024-03-02T00:33:14;13.80;;;6.72;;
67904;SDS011;54709;43.614;1.576;2024-03-02T00:35:39;13.20;;;6.50;;
67904;SDS011;54709;43.614;1.576;2024-03-02T00:38:05;12.48;;;6.95;;
67904;SDS011;54709;43.614;1.576;2024-03-02T00:40:33;11.20;;;6.90;;
67904;SDS011;54709;43.614;1.576;2024-03-02T00:42:59;12.20;;;6.88;;
67904;SDS011;54709;43.614;1.576;2024-03-02T00:45:25;8.70;;;6.30;;
67904;SDS011;54709;43.614;1.576;2024-03-02T00:47:51;10.35;;;6.60;;
67904;SDS011;54709;43.614;1.576;2024-03-02T00:50:17;10.27;;;6.57;;
67904;SDS011;54709;43.614;1.576;2024-03-02T00:52:42;11.60;;;6.90;;
67904;SDS011;54709;43.614;1.576;2024-03-02T00:55:08;11.77;;;6.97;;
67904;SDS011;54709;43.614;1.576;2024-03-02T00:57:34;12.13;;;7.20;;
67904;SDS011;54709;43.614;1.576;2024-03-02T00:59:59;12.88;;;7.20;;
67904;SDS011;54709;43.614;1.576;2024-03-02T01:02:25;12.07;;;7.50;;
67904;SDS011;54709;43.614;1.576;2024-03-02T01:04:51;14.30;;;7.72;;
67904;SDS011;54709;43.614;1.576;2024-03-02T01:07:17;13.90;;;8.32;;
67904;SDS011;54709;43.614;1.576;2024-03-02T01:09:42;11.52;;;7.47;;
67904;SDS011;54709;43.614;1.576;2024-03-02T01:12:08;11.75;;;7.10;;
67904;SDS011;54709;43.614;1.576;2024-03-02T01:14:33;12.48;;;6.93;;
67904;SDS011;54709;43.614;1.576;2024-03-02T01:16:59;12.27;;;6.50;;
67904;SDS011;54709;43.614;1.576;2024-03-02T01:19:28;9.13;;;6.00;;
67904;SDS011;54709;43.614;1.576;2024-03-02T01:21:53;10.32;;;5.80;;
67904;SDS011;54709;43.614;1.576;2024-03-02T01:24:19;8.77;;;5.28;;
67904;SDS011;54709;43.614;1.576;2024-03-02T01:26:44;9.55;;;5.43;;
67904;SDS011;54709;43.614;1.576;2024-03-02T01:29:09;10.52;;;5.30;;
67904;SDS011;54709;43.614;1.576;2024-03-02T01:31:35;6.97;;;4.95;;
67904;SDS011;54709;43.614;1.576;2024-03-02T01:34:00;7.97;;;5.20;;
67904;SDS011;54709;43.614;1.576;2024-03-02T01:36:26;8.85;;;5.15;;
67904;SDS011;54709;43.614;1.576;2024-03-02T01:38:51;7.97;;;4.80;;
67904;SDS011;54709;43.614;1.576;2024-03-02T01:41:16;8.93;;;4.95;;
67904;SDS011;54709;43.614;1.576;2024-03-02T01:43:42;7.93;;;4.85;;
67904;SDS011;54709;43.614;1.576;2024-03-02T01:46:07;8.45;;;5.03;;
67904;SDS011;54709;43.614;1.576;2024-03-02T01:48:33;8.57;;;5.20;;
67904;SDS011;54709;43.614;1.576;2024-03-02T01:50:59;9.55;;;5.00;;
67904;SDS011;54709;43.614;1.576;2024-03-02T01:53:24;10.45;;;4.95;;
67904;SDS011;54709;43.614;1.576;2024-03-02T01:55:50;7.93;;;4.60;;
67904;SDS011;54709;43.614;1.576;2024-03-02T01:58:15;6.35;;;4.10;;
67904;SDS011;54709;43.614;1.576;2024-03-02T02:00:41;8.30;;;4.43;;
67904;SDS011;54709;43.614;1.576;2024-03-02T02:03:06;7.10;;;4.65;;
67904;SDS011;54709;43.614;1.576;2024-03-02T02:05:32;9.30;;;5.13;;
67904;SDS011;54709;43.614;1.576;2024-03-02T02:07:58;8.85;;;4.63;;
67904;SDS011;54709;43.614;1.576;2024-03-02T02:10:24;6.43;;;4.75;;
67904;SDS011;54709;43.614;1.576;2024-03-02T02:12:49;8.32;;;4.45;;
67904;SDS011;54709;43.614;1.576;2024-03-02T02:15:48;9.80;;;4.82;;
67904;SDS011;54709;43.614;1.576;2024-03-02T02:18:06;8.15;;;5.15;;
67904;SDS011;54709;43.614;1.576;2024-03-02T02:20:31;10.40;;;5.47;;
67904;SDS011;54709;43.614;1.576;2024-03-02T02:23:03;8.23;;;5.20;;
67904;SDS011;54709;43.614;1.576;2024-03-02T02:25:30;9.02;;;5.18;;
67904;SDS011;54709;43.614;1.576;2024-03-02T02:27:56;7.47;;;5.18;;
67904;SDS011;54709;43.614;1.576;2024-03-02T02:30:26;8.40;;;5.32;;
67904;SDS011;54709;43.614;1.576;2024-03-02T02:32:52;8.85;;;5.75;;
67904;SDS011;54709;43.614;1.576;2024-03-02T02:35:18;8.95;;;5.97;;
67904;SDS011;54709;43.614;1.576;2024-03-02T02:37:43;10.63;;;6.40;;
67904;SDS011;54709;43.614;1.576;2024-03-02T02:40:10;8.63;;;5.53;;
67904;SDS011;54709;43.614;1.576;2024-03-02T02:42:36;10.32;;;5.57;;
67904;SDS011;54709;43.614;1.576;2024-03-02T02:45:01;8.98;;;5.55;;
67904;SDS011;54709;43.614;1.576;2024-03-02T02:47:27;9.13;;;5.22;;
67904;SDS011;54709;43.614;1.576;2024-03-02T02:49:54;11.27;;;5.70;;
67904;SDS011;54709;43.614;1.576;2024-03-02T02:52:19;9.65;;;5.60;;
67904;SDS011;54709;43.614;1.576;2024-03-02T02:54:46;8.15;;;5.38;;
67904;SDS011;54709;43.614;1.576;2024-03-02T02:57:11;9.90;;;5.30;;
67904;SDS011;54709;43.614;1.576;2024-03-02T02:59:37;12.75;;;5.45;;
67904;SDS011;54709;43.614;1.576;2024-03-02T03:02:02;8.40;;;5.00;;
67904;SDS011;54709;43.614;1.576;2024-03-02T03:04:27;8.30;;;5.10;;
67904;SDS011;54709;43.614;1.576;2024-03-02T03:06:53;11.32;;;5.20;;
67904;SDS011;54709;43.614;1.576;2024-03-02T03:09:18;11.30;;;4.78;;
67904;SDS011;54709;43.614;1.576;2024-03-02T03:11:43;7.75;;;4.90;;
67904;SDS011;54709;43.614;1.576;2024-03-02T03:14:09;6.75;;;4.32;;
67904;SDS011;54709;43.614;1.576;2024-03-02T03:16:34;7.60;;;4.70;;
67904;SDS011;54709;43.614;1.576;2024-03-02T03:19:00;8.05;;;4.72;;
67904;SDS011;54709;43.614;1.576;2024-03-02T03:21:25;8.07;;;4.97;;
67904;SDS011;54709;43.614;1.576;2024-03-02T03:23:50;10.25;;;4.30;;
67904;SDS011;54709;43.614;1.576;2024-03-02T03:26:16;7.80;;;4.15;;
67904;SDS011;54709;43.614;1.576;2024-03-02T03:28:41;6.72;;;4.28;;
67904;SDS011;54709;43.614;1.576;2024-03-02T03:31:06;7.78;;;4.35;;
67904;SDS011;54709;43.614;1.576;2024-03-02T03:33:32;8.48;;;4.53;;
67904;SDS011;54709;43.614;1.576;2024-03-02T03:35:57;7.97;;;4.47;;
67904;SDS011;54709;43.614;1.576;2024-03-02T03:38:23;6.93;;;4.43;;
67904;SDS011;54709;43.614;1.576;2024-03-02T03:40:48;7.38;;;4.63;;
67904;SDS011;54709;43.614;1.576;2024-03-02T03:43:13;10.75;;;4.80;;
67904;SDS011;54709;43.614;1.576;2024-03-02T03:45:39;10.35;;;5.07;;
67904;SDS011;54709;43.614;1.576;2024-03-02T03:48:04;8.43;;;4.65;;
67904;SDS011;54709;43.614;1.576;2024-03-02T03:50:30;8.13;;;4.40;;
67904;SDS011;54709;43.614;1.576;2024-03-02T03:52:55;8.10;;;4.78;;
67904;SDS011;54709;43.614;1.576;2024-03-02T03:55:20;8.95;;;4.72;;
67904;SDS011;54709;43.614;1.576;2024-03-02T03:57:46;9.13;;;5.10;;
67904;SDS011;54709;43.614;1.576;2024-03-02T04:00:11;10.77;;;5.40;;
67904;SDS011;54709;43.614;1.576;2024-03-02T04:02:37;7.80;;;4.82;;
67904;SDS011;54709;43.614;1.576;2024-03-02T04:05:03;8.70;;;5.30;;
67904;SDS011;54709;43.614;1.576;2024-03-02T04:07:33;11.52;;;5.40;;
67904;SDS011;54709;43.614;1.576;2024-03-02T04:10:04;11.00;;;5.20;;
67904;SDS011;54709;43.614;1.576;2024-03-02T04:12:30;6.60;;;4.43;;
67904;SDS011;54709;43.614;1.576;2024-03-02T04:14:55;7.35;;;4.50;;
67904;SDS011;54709;43.614;1.576;2024-03-02T04:17:20;11.23;;;4.70;;
67904;SDS011;54709;43.614;1.576;2024-03-02T04:19:46;7.50;;;4.80;;
67904;SDS011;54709;43.614;1.576;2024-03-02T04:22:11;9.18;;;4.63;;
67904;SDS011;54709;43.614;1.576;2024-03-02T04:24:36;10.57;;;5.60;;
67904;SDS011;54709;43.614;1.576;2024-03-02T04:27:02;8.02;;;4.82;;
67904;SDS011;54709;43.614;1.576;2024-03-02T04:29:27;8.57;;;4.60;;
67904;SDS011;54709;43.614;1.576;2024-03-02T04:31:53;9.23;;;4.57;;
67904;SDS011;54709;43.614;1.576;2024-03-02T04:34:18;8.30;;;4.60;;
67904;SDS011;54709;43.614;1.576;2024-03-02T04:36:43;6.35;;;4.18;;
67904;SDS011;54709;43.614;1.576;2024-03-02T04:39:09;6.93;;;4.43;;
67904;SDS011;54709;43.614;1.576;2024-03-02T04:41:34;9.38;;;4.45;;
67904;SDS011;54709;43.614;1.576;2024-03-02T04:44:00;7.60;;;4.13;;
67904;SDS011;54709;43.614;1.576;2024-03-02T04:46:25;6.30;;;4.03;;
67904;SDS011;54709;43.614;1.576;2024-03-02T04:48:51;6.68;;;4.07;;
67904;SDS011;54709;43.614;1.576;2024-03-02T04:51:20;6.75;;;4.07;;
67904;SDS011;54709;43.614;1.576;2024-03-02T04:53:46;7.65;;;4.50;;
67904;SDS011;54709;43.614;1.576;2024-03-02T04:56:11;4.80;;;3.33;;
67904;SDS011;54709;43.614;1.576;2024-03-02T04:58:55;8.50;;;4.15;;
67904;SDS011;54709;43.614;1.576;2024-03-02T05:01:21;7.95;;;4.40;;
67904;SDS011;54709;43.614;1.576;2024-03-02T05:03:46;7.13;;;4.00;;
67904;SDS011;54709;43.614;1.576;2024-03-02T05:06:12;7.80;;;3.83;;
67904;SDS011;54709;43.614;1.576;2024-03-02T05:08:37;6.68;;;4.25;;
67904;SDS011;54709;43.614;1.576;2024-03-02T05:11:03;7.03;;;3.60;;
67904;SDS011;54709;43.614;1.576;2024-03-02T05:13:46;6.53;;;3.90;;
67904;SDS011;54709;43.614;1.576;2024-03-02T05:16:12;6.88;;;3.70;;
67904;SDS011;54709;43.614;1.576;2024-03-02T05:18:37;4.38;;;3.30;;
67904;SDS011;54709;43.614;1.576;2024-03-02T05:21:03;5.82;;;3.67;;
67904;SDS011;54709;43.614;1.576;2024-03-02T05:23:28;6.63;;;3.50;;
67904;SDS011;54709;43.614;1.576;2024-03-02T05:25:54;4.80;;;3.38;;
67904;SDS011;54709;43.614;1.576;2024-03-02T05:28:19;7.85;;;3.95;;
67904;SDS011;54709;43.614;1.576;2024-03-02T05:30:44;6.35;;;3.70;;
67904;SDS011;54709;43.614;1.576;2024-03-02T05:33:11;5.75;;;3.53;;
67904;SDS011;54709;43.614;1.576;2024-03-02T05:35:36;8.63;;;3.80;;
67904;SDS011;54709;43.614;1.576;2024-03-02T05:38:01;5.53;;;3.35;;
67904;SDS011;54709;43.614;1.576;2024-03-02T05:40:27;5.93;;;3.28;;
67904;SDS011;54709;43.614;1.576;2024-03-02T05:42:52;7.22;;;3.38;;
67904;SDS011;54709;43.614;1.576;2024-03-02T05:45:17;7.18;;;3.80;;
67904;SDS011;54709;43.614;1.576;2024-03-02T05:47:43;8.00;;;3.30;;
67904;SDS011;54709;43.614;1.576;2024-03-02T05:50:08;6.43;;;3.22;;
67904;SDS011;54709;43.614;1.576;2024-03-02T05:52:34;6.30;;;2.92;;
67904;SDS011;54709;43.614;1.576;2024-03-02T05:54:59;9.13;;;3.40;;
67904;SDS011;54709;43.614;1.576;2024-03-02T05:57:25;6.68;;;2.78;;
67904;SDS011;54709;43.614;1.576;2024-03-02T06:00:12;6.68;;;3.28;;
67904;SDS011;54709;43.614;1.576;2024-03-02T06:02:41;5.60;;;3.03;;
67904;SDS011;54709;43.614;1.576;2024-03-02T06:05:06;6.68;;;3.33;;
67904;SDS011;54709;43.614;1.576;2024-03-02T06:07:32;3.97;;;2.70;;
67904;SDS011;54709;43.614;1.576;2024-03-02T06:09:58;4.55;;;2.60;;
67904;SDS011;54709;43.614;1.576;2024-03-02T06:12:23;5.53;;;2.72;;
67904;SDS011;54709;43.614;1.576;2024-03-02T06:14:49;4.20;;;2.72;;
67904;SDS011;54709;43.614;1.576;2024-03-02T06:17:14;4.00;;;2.53;;
67904;SDS011;54709;43.614;1.576;2024-03-02T06:19:39;6.07;;;2.78;;
67904;SDS011;54709;43.614;1.576;2024-03-02T06:22:05;7.68;;;2.80;;
67904;SDS011;54709;43.614;1.576;2024-03-02T06:24:30;6.03;;;2.50;;
67904;SDS011;54709;43.614;1.576;2024-03-02T06:26:56;6.57;;;2.85;;
67904;SDS011;54709;43.614;1.576;2024-03-02T06:29:21;6.43;;;2.55;;
67904;SDS011;54709;43.614;1.576;2024-03-02T06:31:47;4.35;;;2.45;;
67904;SDS011;54709;43.614;1.576;2024-03-02T06:34:12;8.00;;;2.45;;
67904;SDS011;54709;43.614;1.576;2024-03-02T06:36:38;6.00;;;2.50;;
67904;SDS011;54709;43.614;1.576;2024-03-02T06:39:05;6.03;;;2.45;;
67904;SDS011;54709;43.614;1.576;2024-03-02T06:41:30;3.35;;;2.28;;
67904;SDS011;54709;43.614;1.576;2024-03-02T06:43:56;4.93;;;2.30;;
67904;SDS011;54709;43.614;1.576;2024-03-02T06:46:24;5.53;;;2.28;;
67904;SDS011;54709;43.614;1.576;2024-03-02T06:48:50;5.93;;;2.13;;
67904;SDS011;54709;43.614;1.576;2024-03-02T06:51:16;4.97;;;2.40;;
67904;SDS011;54709;43.614;1.576;2024-03-02T06:53:41;5.78;;;2.10;;
67904;SDS011;54709;43.614;1.576;2024-03-02T06:56:07;7.47;;;2.47;;
67904;SDS011;54709;43.614;1.576;2024-03-02T06:58:33;6.07;;;2.17;;
67904;SDS011;54709;43.614;1.576;2024-03-02T07:00:58;4.95;;;2.47;;
67904;SDS011;54709;43.614;1.576;2024-03-02T07:03:25;6.53;;;2.30;;
67904;SDS011;54709;43.614;1.576;2024-03-02T07:05:50;5.78;;;2.17;;
67904;SDS011;54709;43.614;1.576;2024-03-02T07:08:16;5.93;;;2.58;;
67904;SDS011;54709;43.614;1.576;2024-03-02T07:10:41;5.35;;;2.10;;
67904;SDS011;54709;43.614;1.576;2024-03-02T07:13:07;6.10;;;2.33;;
67904;SDS011;54709;43.614;1.576;2024-03-02T07:15:32;5.40;;;2.58;;
67904;SDS011;54709;43.614;1.576;2024-03-02T07:18:16;5.50;;;2.35;;
67904;SDS011;54709;43.614;1.576;2024-03-02T07:20:41;4.57;;;2.40;;
67904;SDS011;54709;43.614;1.576;2024-03-02T07:23:07;5.93;;;2.10;;
67904;SDS011;54709;43.614;1.576;2024-03-02T07:25:32;4.00;;;2.10;;
67904;SDS011;54709;43.614;1.576;2024-03-02T07:27:57;6.03;;;2.20;;
67904;SDS011;54709;43.614;1.576;2024-03-02T07:30:23;6.13;;;2.60;;
67904;SDS011;54709;43.614;1.576;2024-03-02T07:32:50;4.22;;;2.10;;
67904;SDS011;54709;43.614;1.576;2024-03-02T07:35:15;4.47;;;2.08;;
67904;SDS011;54709;43.614;1.576;2024-03-02T07:37:41;4.95;;;2.63;;
67904;SDS011;54709;43.614;1.576;2024-03-02T07:40:07;5.40;;;2.33;;
67904;SDS011;54709;43.614;1.576;2024-03-02T07:42:39;5.97;;;2.33;;
67904;SDS011;54709;43.614;1.576;2024-03-02T07:45:05;8.10;;;2.63;;
67904;SDS011;54709;43.614;1.576;2024-03-02T07:47:31;5.75;;;2.58;;
67904;SDS011;54709;43.614;1.576;2024-03-02T07:49:58;5.13;;;2.28;;
67904;SDS011;54709;43.614;1.576;2024-03-02T07:52:23;4.88;;;2.40;;
67904;SDS011;54709;43.614;1.576;2024-03-02T07:54:49;3.80;;;2.10;;
67904;SDS011;54709;43.614;1.576;2024-03-02T07:57:14;8.73;;;2.70;;
67904;SDS011;54709;43.614;1.576;2024-03-02T07:59:39;5.70;;;2.40;;
67904;SDS011;54709;43.614;1.576;2024-03-02T08:02:05;5.35;;;2.60;;
67904;SDS011;54709;43.614;1.576;2024-03-02T08:04:30;5.97;;;2.50;;
67904;SDS011;54709;43.614;1.576;2024-03-02T08:06:56;6.15;;;2.40;;
67904;SDS011;54709;43.614;1.576;2024-03-02T08:09:22;7.03;;;2.83;;
67904;SDS011;54709;43.614;1.576;2024-03-02T08:11:47;4.07;;;2.10;;
67904;SDS011;54709;43.614;1.576;2024-03-02T08:14:13;6.15;;;2.72;;
67904;SDS011;54709;43.614;1.576;2024-03-02T08:16:38;5.32;;;2.60;;
67904;SDS011;54709;43.614;1.576;2024-03-02T08:19:03;3.65;;;2.05;;
67904;SDS011;54709;43.614;1.576;2024-03-02T08:21:29;3.92;;;2.20;;
67904;SDS011;54709;43.614;1.576;2024-03-02T08:23:56;3.85;;;2.20;;
67904;SDS011;54709;43.614;1.576;2024-03-02T08:26:22;4.85;;;2.40;;
67904;SDS011;54709;43.614;1.576;2024-03-02T08:28:47;4.50;;;2.00;;
67904;SDS011;54709;43.614;1.576;2024-03-02T08:31:13;5.15;;;2.35;;
67904;SDS011;54709;43.614;1.576;2024-03-02T08:33:38;5.45;;;2.40;;
67904;SDS011;54709;43.614;1.576;2024-03-02T08:36:03;4.25;;;2.10;;
67904;SDS011;54709;43.614;1.576;2024-03-02T08:38:30;3.13;;;1.83;;
67904;SDS011;54709;43.614;1.576;2024-03-02T08:40:56;5.22;;;2.08;;
67904;SDS011;54709;43.614;1.576;2024-03-02T08:43:21;4.93;;;1.83;;
67904;SDS011;54709;43.614;1.576;2024-03-02T08:45:47;2.83;;;1.70;;
67904;SDS011;54709;43.614;1.576;2024-03-02T08:48:13;3.10;;;1.65;;
67904;SDS011;54709;43.614;1.576;2024-03-02T08:50:38;4.38;;;1.80;;
67904;SDS011;54709;43.614;1.576;2024-03-02T08:53:04;4.15;;;1.67;;
67904;SDS011;54709;43.614;1.576;2024-03-02T08:55:29;4.55;;;1.90;;
67904;SDS011;54709;43.614;1.576;2024-03-02T08:57:55;3.65;;;1.73;;
67904;SDS011;54709;43.614;1.576;2024-03-02T09:00:20;5.50;;;2.10;;
67904;SDS011;54709;43.614;1.576;2024-03-02T09:02:46;6.85;;;2.10;;
67904;SDS011;54709;43.614;1.576;2024-03-02T09:05:12;5.60;;;1.92;;
67904;SDS011;54709;43.614;1.576;2024-03-02T09:07:37;3.97;;;2.47;;
67904;SDS011;54709;43.614;1.576;2024-03-02T09:10:04;6.72;;;2.42;;
67904;SDS011;54709;43.614;1.576;2024-03-02T09:12:31;5.43;;;2.05;;
67904;SDS011;54709;43.614;1.576;2024-03-02T09:14:56;7.75;;;2.30;;
67904;SDS011;54709;43.614;1.576;2024-03-02T09:17:22;6.68;;;2.50;;
67904;SDS011;54709;43.614;1.576;2024-03-02T09:19:47;5.60;;;2.50;;
67904;SDS011;54709;43.614;1.576;2024-03-02T09:22:13;7.45;;;2.67;;
67904;SDS011;54709;43.614;1.576;2024-03-02T09:24:38;5.85;;;2.83;;
67904;SDS011;54709;43.614;1.576;2024-03-02T09:27:04;7.60;;;2.53;;
67904;SDS011;54709;43.614;1.576;2024-03-02T09:29:30;8.73;;;2.53;;
67904;SDS011;54709;43.614;1.576;2024-03-02T09:31:56;7.72;;;2.55;;
67904;SDS011;54709;43.614;1.576;2024-03-02T09:34:21;10.18;;;2.90;;
67904;SDS011;54709;43.614;1.576;2024-03-02T09:36:47;7.85;;;2.67;;
67904;SDS011;54709;43.614;1.576;2024-03-02T09:39:12;7.13;;;2.97;;
67904;SDS011;54709;43.614;1.576;2024-03-02T09:41:38;10.35;;;3.20;;
67904;SDS011;54709;43.614;1.576;2024-03-02T09:44:04;6.38;;;2.85;;
67904;SDS011;54709;43.614;1.576;2024-03-02T09:46:30;9.63;;;3.67;;
67904;SDS011;54709;43.614;1.576;2024-03-02T09:48:55;7.45;;;3.53;;
67904;SDS011;54709;43.614;1.576;2024-03-02T09:51:21;6.68;;;3.08;;
67904;SDS011;54709;43.614;1.576;2024-03-02T09:53:47;8.68;;;2.97;;
67904;SDS011;54709;43.614;1.576;2024-03-02T09:56:12;7.20;;;3.10;;
67904;SDS011;54709;43.614;1.576;2024-03-02T09:58:38;11.20;;;4.65;;
67904;SDS011;54709;43.614;1.576;2024-03-02T10:01:05;11.02;;;3.38;;
67904;SDS011;54709;43.614;1.576;2024-03-02T10:03:31;7.63;;;3.40;;
67904;SDS011;54709;43.614;1.576;2024-03-02T10:06:18;7.22;;;2.78;;
67904;SDS011;54709;43.614;1.576;2024-03-02T10:08:44;6.80;;;2.78;;
67904;SDS011;54709;43.614;1.576;2024-03-02T10:11:09;6.93;;;2.60;;
67904;SDS011;54709;43.614;1.576;2024-03-02T10:13:35;8.55;;;2.47;;
67904;SDS011;54709;43.614;1.576;2024-03-02T10:16:08;10.07;;;3.10;;
67904;SDS011;54709;43.614;1.576;2024-03-02T10:18:37;5.88;;;2.80;;
67904;SDS011;54709;43.614;1.576;2024-03-02T10:21:14;6.20;;;2.88;;
67904;SDS011;54709;43.614;1.576;2024-03-02T10:23:40;8.20;;;2.72;;
67904;SDS011;54709;43.614;1.576;2024-03-02T10:26:16;8.60;;;3.03;;
67904;SDS011;54709;43.614;1.576;2024-03-02T10:28:46;6.68;;;2.97;;
67904;SDS011;54709;43.614;1.576;2024-03-02T10:31:17;6.60;;;3.08;;
67904;SDS011;54709;43.614;1.576;2024-03-02T10:33:42;8.27;;;3.22;;
67904;SDS011;54709;43.614;1.576;2024-03-02T10:36:08;9.27;;;3.10;;
67904;SDS011;54709;43.614;1.576;2024-03-02T10:38:33;7.82;;;3.20;;
67904;SDS011;54709;43.614;1.576;2024-03-02T10:40:58;8.38;;;2.70;;
67904;SDS011;54709;43.614;1.576;2024-03-02T10:43:24;10.00;;;3.40;;
67904;SDS011;54709;43.614;1.576;2024-03-02T10:45:51;7.68;;;3.20;;
67904;SDS011;54709;43.614;1.576;2024-03-02T10:48:17;8.15;;;2.95;;
67904;SDS011;54709;43.614;1.576;2024-03-02T10:50:43;7.57;;;3.00;;
67904;SDS011;54709;43.614;1.576;2024-03-02T10:53:09;9.15;;;3.00;;
67904;SDS011;54709;43.614;1.576;2024-03-02T10:55:34;9.25;;;2.97;;
67904;SDS011;54709;43.614;1.576;2024-03-02T10:58:00;7.57;;;3.28;;
67904;SDS011;54709;43.614;1.576;2024-03-02T11:00:28;6.95;;;2.80;;
67904;SDS011;54709;43.614;1.576;2024-03-02T11:03:05;9.27;;;3.15;;
67904;SDS011;54709;43.614;1.576;2024-03-02T11:05:31;8.38;;;3.00;;
67904;SDS011;54709;43.614;1.576;2024-03-02T11:08:03;8.88;;;3.13;;
67904;SDS011;54709;43.614;1.576;2024-03-02T11:10:51;7.13;;;3.13;;
67904;SDS011;54709;43.614;1.576;2024-03-02T11:13:18;8.23;;;2.90;;
67904;SDS011;54709;43.614;1.576;2024-03-02T11:15:49;8.68;;;3.35;;
67904;SDS011;54709;43.614;1.576;2024-03-02T11:18:17;8.60;;;3.15;;
67904;SDS011;54709;43.614;1.576;2024-03-02T11:20:42;8.05;;;3.05;;
67904;SDS011;54709;43.614;1.576;2024-03-02T11:23:08;9.02;;;3.30;;
67904;SDS011;54709;43.614;1.576;2024-03-02T11:25:34;8.52;;;3.70;;
67904;SDS011;54709;43.614;1.576;2024-03-02T11:28:04;7.22;;;3.28;;
67904;SDS011;54709;43.614;1.576;2024-03-02T11:32:59;9.25;;;3.47;;
67904;SDS011;54709;43.614;1.576;2024-03-02T11:35:25;8.88;;;2.92;;
67904;SDS011;54709;43.614;1.576;2024-03-02T11:37:51;12.98;;;3.25;;
67904;SDS011;54709;43.614;1.576;2024-03-02T11:40:24;9.45;;;2.90;;
67904;SDS011;54709;43.614;1.576;2024-03-02T11:42:50;10.05;;;3.05;;
67904;SDS011;54709;43.614;1.576;2024-03-02T11:45:25;10.38;;;2.95;;
67904;SDS011;54709;43.614;1.576;2024-03-02T11:47:52;8.75;;;2.97;;
67904;SDS011;54709;43.614;1.576;2024-03-02T11:50:34;10.10;;;2.90;;
67904;SDS011;54709;43.614;1.576;2024-03-02T11:53:08;9.02;;;2.97;;
67904;SDS011;54709;43.614;1.576;2024-03-02T11:55:35;9.35;;;3.67;;
67904;SDS011;54709;43.614;1.576;2024-03-02T11:58:05;11.25;;;3.72;;
67904;SDS011;54709;43.614;1.576;2024-03-02T12:00:33;11.95;;;4.10;;
67904;SDS011;54709;43.614;1.576;2024-03-02T12:03:10;12.35;;;3.40;;
67904;SDS011;54709;43.614;1.576;2024-03-02T12:05:37;11.65;;;3.20;;
67904;SDS011;54709;43.614;1.576;2024-03-02T12:08:03;11.73;;;3.22;;
67904;SDS011;54709;43.614;1.576;2024-03-02T12:10:30;7.93;;;2.97;;
67904;SDS011;54709;43.614;1.576;2024-03-02T12:15:25;8.60;;;3.00;;
67904;SDS011;54709;43.614;1.576;2024-03-02T12:17:55;7.03;;;2.50;;
67904;SDS011;54709;43.614;1.576;2024-03-02T12:20:21;10.68;;;2.47;;
67904;SDS011;54709;43.614;1.576;2024-03-02T12:22:48;7.90;;;2.50;;
67904;SDS011;54709;43.614;1.576;2024-03-02T12:25:15;5.65;;;2.00;;
67904;SDS011;54709;43.614;1.576;2024-03-02T12:27:41;8.90;;;2.42;;
67904;SDS011;54709;43.614;1.576;2024-03-02T12:30:06;7.97;;;2.05;;
67904;SDS011;54709;43.614;1.576;2024-03-02T12:32:35;7.13;;;2.10;;
67904;SDS011;54709;43.614;1.576;2024-03-02T12:35:03;8.63;;;2.20;;
67904;SDS011;54709;43.614;1.576;2024-03-02T12:37:29;5.18;;;1.92;;
67904;SDS011;54709;43.614;1.576;2024-03-02T12:39:55;7.45;;;2.28;;
67904;SDS011;54709;43.614;1.576;2024-03-02T12:42:20;7.20;;;2.00;;
67904;SDS011;54709;43.614;1.576;2024-03-02T12:44:46;5.63;;;2.03;;
67904;SDS011;54709;43.614;1.576;2024-03-02T12:47:11;6.75;;;1.85;;
67904;SDS011;54709;43.614;1.576;2024-03-02T12:49:39;5.78;;;1.88;;
67904;SDS011;54709;43.614;1.576;2024-03-02T12:52:05;8.30;;;1.98;;
67904;SDS011;54709;43.614;1.576;2024-03-02T12:54:31;6.60;;;2.10;;
67904;SDS011;54709;43.614;1.576;2024-03-02T12:56:58;7.70;;;1.90;;
67904;SDS011;54709;43.614;1.576;2024-03-02T12:59:24;5.35;;;1.95;;
67904;SDS011;54709;43.614;1.576;2024-03-02T13:01:55;8.02;;;1.67;;
67904;SDS011;54709;43.614;1.576;2024-03-02T13:06:54;5.65;;;1.90;;
67904;SDS011;54709;43.614;1.576;2024-03-02T13:09:21;6.65;;;2.08;;
67904;SDS011;54709;43.614;1.576;2024-03-02T13:11:47;8.00;;;1.83;;
67904;SDS011;54709;43.614;1.576;2024-03-02T13:14:12;6.43;;;2.13;;
67904;SDS011;54709;43.614;1.576;2024-03-02T13:16:38;7.35;;;2.25;;
67904;SDS011;54709;43.614;1.576;2024-03-02T13:19:07;7.50;;;1.90;;
67904;SDS011;54709;43.614;1.576;2024-03-02T13:21:33;7.32;;;2.22;;
67904;SDS011;54709;43.614;1.576;2024-03-02T13:23:58;4.18;;;2.00;;
67904;SDS011;54709;43.614;1.576;2024-03-02T13:26:25;9.32;;;2.13;;
67904;SDS011;54709;43.614;1.576;2024-03-02T13:28:50;5.90;;;1.95;;
67904;SDS011;54709;43.614;1.576;2024-03-02T13:31:16;6.88;;;2.13;;
67904;SDS011;54709;43.614;1.576;2024-03-02T13:33:41;7.45;;;2.20;;
67904;SDS011;54709;43.614;1.576;2024-03-02T13:36:07;6.28;;;1.90;;
67904;SDS011;54709;43.614;1.576;2024-03-02T13:38:33;4.93;;;2.00;;
67904;SDS011;54709;43.614;1.576;2024-03-02T13:40:58;6.13;;;1.90;;
67904;SDS011;54709;43.614;1.576;2024-03-02T13:43:25;7.57;;;1.83;;
67904;SDS011;54709;43.614;1.576;2024-03-02T13:45:51;8.93;;;1.85;;
67904;SDS011;54709;43.614;1.576;2024-03-02T13:48:18;6.80;;;2.03;;
67904;SDS011;54709;43.614;1.576;2024-03-02T13:50:44;6.28;;;2.00;;
67904;SDS011;54709;43.614;1.576;2024-03-02T13:53:10;5.88;;;2.08;;
67904;SDS011;54709;43.614;1.576;2024-03-02T13:55:36;6.20;;;2.13;;
67904;SDS011;54709;43.614;1.576;2024-03-02T13:58:02;8.05;;;2.08;;
67904;SDS011;54709;43.614;1.576;2024-03-02T14:00:28;5.63;;;2.05;;
67904;SDS011;54709;43.614;1.576;2024-03-02T14:02:54;7.70;;;2.30;;
67904;SDS011;54709;43.614;1.576;2024-03-02T14:05:19;8.85;;;2.25;;
67904;SDS011;54709;43.614;1.576;2024-03-02T14:07:45;4.72;;;1.80;;
67904;SDS011;54709;43.614;1.576;2024-03-02T14:10:10;6.63;;;2.08;;
67904;SDS011;54709;43.614;1.576;2024-03-02T14:12:36;7.15;;;1.85;;
67904;SDS011;54709;43.614;1.576;2024-03-02T14:15:02;6.57;;;2.20;;
67904;SDS011;54709;43.614;1.576;2024-03-02T14:17:28;4.75;;;1.70;;
67904;SDS011;54709;43.614;1.576;2024-03-02T14:19:54;6.10;;;2.00;;
67904;SDS011;54709;43.614;1.576;2024-03-02T14:22:19;10.48;;;2.30;;
67904;SDS011;54709;43.614;1.576;2024-03-02T14:24:45;5.97;;;2.30;;
67904;SDS011;54709;43.614;1.576;2024-03-02T14:27:11;10.27;;;2.35;;
67904;SDS011;54709;43.614;1.576;2024-03-02T14:29:36;6.18;;;2.03;;
67904;SDS011;54709;43.614;1.576;2024-03-02T14:32:03;5.22;;;1.70;;
67904;SDS011;54709;43.614;1.576;2024-03-02T14:34:29;8.75;;;1.75;;
67904;SDS011;54709;43.614;1.576;2024-03-02T14:36:54;7.32;;;2.00;;
67904;SDS011;54709;43.614;1.576;2024-03-02T14:39:20;5.65;;;1.90;;
67904;SDS011;54709;43.614;1.576;2024-03-02T14:41:45;5.60;;;2.40;;
67904;SDS011;54709;43.614;1.576;2024-03-02T14:44:19;4.82;;;2.08;;
67904;SDS011;54709;43.614;1.576;2024-03-02T14:46:48;6.50;;;1.90;;
67904;SDS011;54709;43.614;1.576;2024-03-02T14:49:14;6.88;;;2.00;;
67904;SDS011;54709;43.614;1.576;2024-03-02T14:51:39;6.35;;;1.92;;
67904;SDS011;54709;43.614;1.576;2024-03-02T14:54:05;5.32;;;1.70;;
67904;SDS011;54709;43.614;1.576;2024-03-02T14:56:30;3.97;;;1.70;;